sensor_id;sensor_type;location;lat;lon;timestamp;pressure;altitude;pressure_sealevel;temperature;humidity
54556;BME280;57291;37.520;15.106;2024-02-23T00:02:26;101338.41;;;11.49;89.58
54556;BME280;57291;37.520;15.106;2024-02-23T00:04:54;101341.72;;;11.46;89.62
54556;BME280;57291;37.520;15.106;2024-02-23T00:07:21;101343.88;;;11.44;89.67
54556;BME280;57291;37.520;15.106;2024-02-23T00:09:49;101347.19;;;11.41;89.86
54556;BME280;57291;37.520;15.106;2024-02-23T00:12:16;101343.41;;;11.37;89.97
54556;BME280;57291;37.520;15.106;2024-02-23T00:14:44;101349.91;;;11.41;89.98
54556;BME280;57291;37.520;15.106;2024-02-23T00:17:12;101350.44;;;11.43;89.54
54556;BME280;57291;37.520;15.106;2024-02-23T00:19:39;101354.28;;;11.42;89.65
54556;BME280;57291;37.520;15.106;2024-02-23T00:22:07;101351.56;;;11.42;89.64
54556;BME280;57291;37.520;15.106;2024-02-23T00:24:35;101346.38;;;11.41;89.57
54556;BME280;57291;37.520;15.106;2024-02-23T00:27:04;101348.81;;;11.42;89.54
54556;BME280;57291;37.520;15.106;2024-02-23T00:29:31;101343.38;;;11.42;89.68
54556;BME280;57291;37.520;15.106;2024-02-23T00:31:58;101346.63;;;11.44;89.34
54556;BME280;57291;37.520;15.106;2024-02-23T00:34:26;101344.47;;;11.41;89.31
54556;BME280;57291;37.520;15.106;2024-02-23T00:36:53;101338.97;;;11.46;89.23
54556;BME280;57291;37.520;15.106;2024-02-23T00:39:21;101335.69;;;11.49;88.61
54556;BME280;57291;37.520;15.106;2024-02-23T00:41:48;101340.56;;;11.53;88.30
54556;BME280;57291;37.520;15.106;2024-02-23T00:44:16;101347.09;;;11.51;88.10
54556;BME280;57291;37.520;15.106;2024-02-23T00:46:43;101337.31;;;11.50;87.89
54556;BME280;57291;37.520;15.106;2024-02-23T00:49:11;101334.34;;;11.47;87.96
54556;BME280;57291;37.520;15.106;2024-02-23T00:51:38;101331.09;;;11.45;87.88
54556;BME280;57291;37.520;15.106;2024-02-23T00:54:06;101337.94;;;11.42;88.07
54556;BME280;57291;37.520;15.106;2024-02-23T00:56:34;101336.28;;;11.41;87.80
54556;BME280;57291;37.520;15.106;2024-02-23T00:59:16;101324.91;;;11.39;87.78
54556;BME280;57291;37.520;15.106;2024-02-23T01:01:44;101332.50;;;11.42;87.58
54556;BME280;57291;37.520;15.106;2024-02-23T01:04:12;101331.69;;;11.42;87.00
54556;BME280;57291;37.520;15.106;2024-02-23T01:06:39;101324.09;;;11.39;85.95
54556;BME280;57291;37.520;15.106;2024-02-23T01:09:07;101317.88;;;11.33;85.51
54556;BME280;57291;37.520;15.106;2024-02-23T01:11:34;101321.16;;;11.30;84.64
54556;BME280;57291;37.520;15.106;2024-02-23T01:14:01;101320.97;;;11.21;83.83
54556;BME280;57291;37.520;15.106;2024-02-23T01:16:29;101319.91;;;11.17;83.73
54556;BME280;57291;37.520;15.106;2024-02-23T01:18:56;101315.91;;;11.10;82.99
54556;BME280;57291;37.520;15.106;2024-02-23T01:21:23;101306.97;;;11.04;82.95
54556;BME280;57291;37.520;15.106;2024-02-23T01:23:51;101312.41;;;11.04;81.86
54556;BME280;57291;37.520;15.106;2024-02-23T01:26:18;101315.69;;;11.01;81.74
54556;BME280;57291;37.520;15.106;2024-02-23T01:28:45;101304.00;;;11.00;81.76
54556;BME280;57291;37.520;15.106;2024-02-23T01:31:13;101306.19;;;10.98;82.29
54556;BME280;57291;37.520;15.106;2024-02-23T01:33:40;101311.09;;;10.96;82.55
54556;BME280;57291;37.520;15.106;2024-02-23T01:36:08;101310.84;;;10.93;83.07
54556;BME280;57291;37.520;15.106;2024-02-23T01:38:35;101297.53;;;10.91;83.96
54556;BME280;57291;37.520;15.106;2024-02-23T01:41:03;101293.72;;;10.92;84.39
54556;BME280;57291;37.520;15.106;2024-02-23T01:43:31;101295.09;;;10.90;84.65
54556;BME280;57291;37.520;15.106;2024-02-23T01:45:58;101291.03;;;10.87;84.55
54556;BME280;57291;37.520;15.106;2024-02-23T01:48:26;101280.69;;;10.89;84.64
54556;BME280;57291;37.520;15.106;2024-02-23T01:50:54;101278.78;;;10.90;84.30
54556;BME280;57291;37.520;15.106;2024-02-23T01:53:22;101272.00;;;10.87;84.33
54556;BME280;57291;37.520;15.106;2024-02-23T01:55:53;101257.88;;;10.85;84.47
54556;BME280;57291;37.520;15.106;2024-02-23T01:58:22;101258.44;;;10.82;83.88
54556;BME280;57291;37.520;15.106;2024-02-23T02:00:49;101251.94;;;10.78;83.38
54556;BME280;57291;37.520;15.106;2024-02-23T02:03:16;101245.47;;;10.74;83.62
54556;BME280;57291;37.520;15.106;2024-02-23T02:05:44;101250.91;;;10.74;83.56
54556;BME280;57291;37.520;15.106;2024-02-23T02:08:12;101243.00;;;10.72;83.36
54556;BME280;57291;37.520;15.106;2024-02-23T02:10:39;101246.84;;;10.71;83.62
54556;BME280;57291;37.520;15.106;2024-02-23T02:13:07;101247.13;;;10.70;83.50
54556;BME280;57291;37.520;15.106;2024-02-23T02:15:34;101240.03;;;10.74;83.51
54556;BME280;57291;37.520;15.106;2024-02-23T02:18:02;101240.03;;;10.74;83.43
54556;BME280;57291;37.520;15.106;2024-02-23T02:20:32;101229.41;;;10.72;83.64
54556;BME280;57291;37.520;15.106;2024-02-23T02:23:00;101232.97;;;10.73;83.80
54556;BME280;57291;37.520;15.106;2024-02-23T02:25:28;101227.22;;;10.74;83.78
54556;BME280;57291;37.520;15.106;2024-02-23T02:27:55;101226.44;;;10.74;84.13
54556;BME280;57291;37.520;15.106;2024-02-23T02:30:22;101220.44;;;10.72;84.14
54556;BME280;57291;37.520;15.106;2024-02-23T02:32:50;101227.81;;;10.71;84.20
54556;BME280;57291;37.520;15.106;2024-02-23T02:35:17;101216.66;;;10.73;84.45
54556;BME280;57291;37.520;15.106;2024-02-23T02:37:45;101210.06;;;10.79;84.36
54556;BME280;57291;37.520;15.106;2024-02-23T02:40:12;101204.63;;;10.79;83.95
54556;BME280;57291;37.520;15.106;2024-02-23T02:42:39;101202.19;;;10.77;84.51
54556;BME280;57291;37.520;15.106;2024-02-23T02:45:07;101197.31;;;10.79;84.64
54556;BME280;57291;37.520;15.106;2024-02-23T02:47:34;101192.34;;;10.87;84.84
54556;BME280;57291;37.520;15.106;2024-02-23T02:50:04;101187.38;;;10.94;84.69
54556;BME280;57291;37.520;15.106;2024-02-23T02:52:33;101188.38;;;11.03;84.35
54556;BME280;57291;37.520;15.106;2024-02-23T02:55:01;101185.59;;;11.08;84.30
54556;BME280;57291;37.520;15.106;2024-02-23T02:57:28;101180.63;;;11.15;83.83
54556;BME280;57291;37.520;15.106;2024-02-23T02:59:56;101183.00;;;11.22;83.41
54556;BME280;57291;37.520;15.106;2024-02-23T03:02:24;101177.63;;;11.17;83.47
54556;BME280;57291;37.520;15.106;2024-02-23T03:04:51;101173.00;;;11.17;82.79
54556;BME280;57291;37.520;15.106;2024-02-23T03:07:19;101180.13;;;11.13;82.58
54556;BME280;57291;37.520;15.106;2024-02-23T03:09:46;101187.47;;;11.13;82.46
54556;BME280;57291;37.520;15.106;2024-02-23T03:12:13;101174.94;;;11.12;82.31
54556;BME280;57291;37.520;15.106;2024-02-23T03:14:41;101176.59;;;11.13;82.26
54556;BME280;57291;37.520;15.106;2024-02-23T03:17:09;101179.31;;;11.13;81.91
54556;BME280;57291;37.520;15.106;2024-02-23T03:19:37;101175.78;;;11.12;81.88
54556;BME280;57291;37.520;15.106;2024-02-23T03:22:05;101173.34;;;11.11;81.62
54556;BME280;57291;37.520;15.106;2024-02-23T03:24:32;101176.88;;;11.11;81.93
54556;BME280;57291;37.520;15.106;2024-02-23T03:27:00;101176.94;;;11.06;82.03
54556;BME280;57291;37.520;15.106;2024-02-23T03:29:27;101176.97;;;11.01;82.33
54556;BME280;57291;37.520;15.106;2024-02-23T03:31:58;101172.63;;;11.00;82.07
54556;BME280;57291;37.520;15.106;2024-02-23T03:34:25;101173.44;;;11.00;81.55
54556;BME280;57291;37.520;15.106;2024-02-23T03:36:53;101177.19;;;11.04;81.44
54556;BME280;57291;37.520;15.106;2024-02-23T03:39:20;101173.97;;;11.02;81.25
54556;BME280;57291;37.520;15.106;2024-02-23T03:41:48;101177.16;;;11.10;80.83
54556;BME280;57291;37.520;15.106;2024-02-23T03:44:15;101179.88;;;11.10;80.39
54556;BME280;57291;37.520;15.106;2024-02-23T03:46:42;101178.53;;;11.07;80.15
54556;BME280;57291;37.520;15.106;2024-02-23T03:49:10;101174.78;;;11.03;80.56
54556;BME280;57291;37.520;15.106;2024-02-23T03:51:39;101191.66;;;11.00;80.57
54556;BME280;57291;37.520;15.106;2024-02-23T03:54:06;101183.78;;;10.98;80.89
54556;BME280;57291;37.520;15.106;2024-02-23T03:56:40;101180.56;;;10.96;80.75
54556;BME280;57291;37.520;15.106;2024-02-23T03:59:09;101182.72;;;10.99;80.99
54556;BME280;57291;37.520;15.106;2024-02-23T04:01:38;101182.94;;;11.03;80.82
54556;BME280;57291;37.520;15.106;2024-02-23T04:04:06;101182.13;;;11.02;81.27
54556;BME280;57291;37.520;15.106;2024-02-23T04:06:34;101182.06;;;11.08;81.55
54556;BME280;57291;37.520;15.106;2024-02-23T04:09:02;101179.66;;;11.06;81.92
54556;BME280;57291;37.520;15.106;2024-02-23T04:11:32;101183.97;;;11.07;82.22
54556;BME280;57291;37.520;15.106;2024-02-23T04:14:01;101168.78;;;11.06;82.59
54556;BME280;57291;37.520;15.106;2024-02-23T04:16:29;101164.63;;;11.09;82.02
54556;BME280;57291;37.520;15.106;2024-02-23T04:18:56;101178.78;;;11.11;82.01
54556;BME280;57291;37.520;15.106;2024-02-23T04:21:24;101172.53;;;11.10;82.08
54556;BME280;57291;37.520;15.106;2024-02-23T04:23:52;101167.97;;;11.06;82.00
54556;BME280;57291;37.520;15.106;2024-02-23T04:26:19;101170.91;;;11.09;82.70
54556;BME280;57291;37.520;15.106;2024-02-23T04:28:47;101164.28;;;11.15;83.19
54556;BME280;57291;37.520;15.106;2024-02-23T04:31:14;101163.38;;;11.25;83.67
54556;BME280;57291;37.520;15.106;2024-02-23T04:33:41;101161.44;;;11.31;83.69
54556;BME280;57291;37.520;15.106;2024-02-23T04:36:09;101151.06;;;11.33;83.75
54556;BME280;57291;37.520;15.106;2024-02-23T04:38:36;101157.84;;;11.35;84.09
54556;BME280;57291;37.520;15.106;2024-02-23T04:41:04;101148.56;;;11.36;84.24
54556;BME280;57291;37.520;15.106;2024-02-23T04:43:32;101149.69;;;11.35;84.27
54556;BME280;57291;37.520;15.106;2024-02-23T04:45:59;101152.41;;;11.35;84.66
54556;BME280;57291;37.520;15.106;2024-02-23T04:48:27;101143.41;;;11.35;85.16
54556;BME280;57291;37.520;15.106;2024-02-23T04:50:54;101146.44;;;11.33;85.67
54556;BME280;57291;37.520;15.106;2024-02-23T04:53:22;101141.53;;;11.35;86.15
54556;BME280;57291;37.520;15.106;2024-02-23T04:55:49;101140.63;;;11.40;86.40
54556;BME280;57291;37.520;15.106;2024-02-23T04:58:16;101142.78;;;11.43;86.40
54556;BME280;57291;37.520;15.106;2024-02-23T05:00:44;101144.13;;;11.45;86.82
54556;BME280;57291;37.520;15.106;2024-02-23T05:03:11;101142.13;;;11.51;86.52
54556;BME280;57291;37.520;15.106;2024-02-23T05:05:39;101140.81;;;11.48;86.60
54556;BME280;57291;37.520;15.106;2024-02-23T05:08:07;101141.91;;;11.47;87.28
54556;BME280;57291;37.520;15.106;2024-02-23T05:10:34;101147.00;;;11.54;87.29
54556;BME280;57291;37.520;15.106;2024-02-23T05:13:02;101143.09;;;11.60;86.93
54556;BME280;57291;37.520;15.106;2024-02-23T05:15:29;101132.22;;;11.60;87.18
54556;BME280;57291;37.520;15.106;2024-02-23T05:17:57;101141.72;;;11.63;86.94
54556;BME280;57291;37.520;15.106;2024-02-23T05:20:24;101133.78;;;11.66;86.55
54556;BME280;57291;37.520;15.106;2024-02-23T05:22:52;101142.75;;;11.67;86.62
54556;BME280;57291;37.520;15.106;2024-02-23T05:25:19;101137.66;;;11.60;86.36
54556;BME280;57291;37.520;15.106;2024-02-23T05:27:47;101140.16;;;11.57;86.82
54556;BME280;57291;37.520;15.106;2024-02-23T05:30:14;101137.22;;;11.53;87.06
54556;BME280;57291;37.520;15.106;2024-02-23T05:32:41;101136.19;;;11.49;86.91
54556;BME280;57291;37.520;15.106;2024-02-23T05:35:09;101131.38;;;11.41;87.02
54556;BME280;57291;37.520;15.106;2024-02-23T05:37:36;101140.56;;;11.45;87.15
54556;BME280;57291;37.520;15.106;2024-02-23T05:40:06;101142.22;;;11.46;87.11
54556;BME280;57291;37.520;15.106;2024-02-23T05:42:38;101134.97;;;11.36;87.42
54556;BME280;57291;37.520;15.106;2024-02-23T05:45:09;101137.28;;;11.24;87.73
54556;BME280;57291;37.520;15.106;2024-02-23T05:47:39;101139.09;;;11.10;87.59
54556;BME280;57291;37.520;15.106;2024-02-23T05:50:14;101144.97;;;11.17;88.67
54556;BME280;57291;37.520;15.106;2024-02-23T05:52:41;101147.53;;;11.32;87.83
54556;BME280;57291;37.520;15.106;2024-02-23T05:55:08;101153.19;;;11.60;87.66
54556;BME280;57291;37.520;15.106;2024-02-23T05:57:36;101156.00;;;11.73;85.27
54556;BME280;57291;37.520;15.106;2024-02-23T06:00:04;101162.09;;;11.89;83.96
54556;BME280;57291;37.520;15.106;2024-02-23T06:02:37;101148.72;;;12.12;83.52
54556;BME280;57291;37.520;15.106;2024-02-23T06:05:05;101161.41;;;12.54;82.19
54556;BME280;57291;37.520;15.106;2024-02-23T06:07:35;101159.72;;;13.05;81.49
54556;BME280;57291;37.520;15.106;2024-02-23T06:10:04;101156.13;;;13.51;79.72
54556;BME280;57291;37.520;15.106;2024-02-23T06:12:32;101158.44;;;14.07;77.81
54556;BME280;57291;37.520;15.106;2024-02-23T06:14:59;101159.09;;;14.49;75.65
54556;BME280;57291;37.520;15.106;2024-02-23T06:17:27;101161.28;;;14.84;75.26
54556;BME280;57291;37.520;15.106;2024-02-23T06:19:54;101152.63;;;15.21;72.59
54556;BME280;57291;37.520;15.106;2024-02-23T06:22:24;101159.22;;;15.60;71.71
54556;BME280;57291;37.520;15.106;2024-02-23T06:24:52;101155.72;;;15.86;69.31
54556;BME280;57291;37.520;15.106;2024-02-23T06:27:20;101154.31;;;16.14;68.64
54556;BME280;57291;37.520;15.106;2024-02-23T06:29:52;101152.69;;;16.22;68.43
54556;BME280;57291;37.520;15.106;2024-02-23T06:32:19;101153.91;;;16.68;66.98
54556;BME280;57291;37.520;15.106;2024-02-23T06:34:46;101154.88;;;16.90;65.81
54556;BME280;57291;37.520;15.106;2024-02-23T06:37:14;101163.69;;;17.13;64.91
54556;BME280;57291;37.520;15.106;2024-02-23T06:39:41;101145.16;;;17.39;64.40
54556;BME280;57291;37.520;15.106;2024-02-23T06:42:09;101150.69;;;17.60;63.36
54556;BME280;57291;37.520;15.106;2024-02-23T06:44:36;101141.19;;;17.28;62.70
54556;BME280;57291;37.520;15.106;2024-02-23T06:47:04;101156.84;;;16.54;65.27
54556;BME280;57291;37.520;15.106;2024-02-23T06:49:32;101150.91;;;15.83;67.00
54556;BME280;57291;37.520;15.106;2024-02-23T06:51:59;101148.75;;;15.22;69.74
54556;BME280;57291;37.520;15.106;2024-02-23T06:54:26;101157.72;;;14.74;71.65
54556;BME280;57291;37.520;15.106;2024-02-23T06:56:54;101147.63;;;14.39;73.21
54556;BME280;57291;37.520;15.106;2024-02-23T06:59:21;101146.78;;;14.16;75.05
54556;BME280;57291;37.520;15.106;2024-02-23T07:01:51;101143.34;;;14.10;76.24
54556;BME280;57291;37.520;15.106;2024-02-23T07:04:19;101146.63;;;13.98;76.68
54556;BME280;57291;37.520;15.106;2024-02-23T07:06:47;101148.34;;;13.94;76.89
54556;BME280;57291;37.520;15.106;2024-02-23T07:09:14;101131.91;;;13.86;77.16
54556;BME280;57291;37.520;15.106;2024-02-23T07:11:42;101141.38;;;13.88;77.45
54556;BME280;57291;37.520;15.106;2024-02-23T07:14:14;101152.13;;;13.84;77.52
54556;BME280;57291;37.520;15.106;2024-02-23T07:16:48;101151.84;;;13.86;77.89
54556;BME280;57291;37.520;15.106;2024-02-23T07:19:16;101151.50;;;13.88;78.24
54556;BME280;57291;37.520;15.106;2024-02-23T07:21:43;101149.72;;;13.83;78.82
54556;BME280;57291;37.520;15.106;2024-02-23T07:24:10;101156.78;;;13.84;78.51
54556;BME280;57291;37.520;15.106;2024-02-23T07:26:38;101165.69;;;13.90;79.10
54556;BME280;57291;37.520;15.106;2024-02-23T07:29:06;101161.72;;;13.96;78.99
54556;BME280;57291;37.520;15.106;2024-02-23T07:31:34;101161.13;;;13.99;78.88
54556;BME280;57291;37.520;15.106;2024-02-23T07:34:01;101175.47;;;14.04;78.41
54556;BME280;57291;37.520;15.106;2024-02-23T07:36:29;101167.97;;;14.10;78.16
54556;BME280;57291;37.520;15.106;2024-02-23T07:38:57;101160.38;;;14.07;78.26
54556;BME280;57291;37.520;15.106;2024-02-23T07:41:24;101157.03;;;14.10;77.55
54556;BME280;57291;37.520;15.106;2024-02-23T07:43:52;101161.28;;;14.39;77.52
54556;BME280;57291;37.520;15.106;2024-02-23T07:46:19;101159.19;;;15.12;74.54
54556;BME280;57291;37.520;15.106;2024-02-23T07:48:47;101162.69;;;15.43;73.27
54556;BME280;57291;37.520;15.106;2024-02-23T07:51:15;101161.97;;;15.69;72.23
54556;BME280;57291;37.520;15.106;2024-02-23T07:53:43;101151.16;;;15.64;72.79
54556;BME280;57291;37.520;15.106;2024-02-23T07:56:10;101145.47;;;15.52;73.80
54556;BME280;57291;37.520;15.106;2024-02-23T07:58:38;101152.25;;;15.63;73.48
54556;BME280;57291;37.520;15.106;2024-02-23T08:01:06;101144.59;;;15.74;72.90
54556;BME280;57291;37.520;15.106;2024-02-23T08:03:33;101137.47;;;15.73;72.22
54556;BME280;57291;37.520;15.106;2024-02-23T08:06:02;101143.06;;;15.59;73.34
54556;BME280;57291;37.520;15.106;2024-02-23T08:08:30;101146.13;;;15.57;73.44
54556;BME280;57291;37.520;15.106;2024-02-23T08:11:02;101137.00;;;15.70;73.70
54556;BME280;57291;37.520;15.106;2024-02-23T08:13:30;101143.47;;;15.75;72.67
54556;BME280;57291;37.520;15.106;2024-02-23T08:15:58;101150.25;;;15.86;72.70
54556;BME280;57291;37.520;15.106;2024-02-23T08:18:25;101142.50;;;15.88;72.25
54556;BME280;57291;37.520;15.106;2024-02-23T08:20:54;101135.59;;;15.90;71.78
54556;BME280;57291;37.520;15.106;2024-02-23T08:23:21;101133.16;;;15.80;71.96
54556;BME280;57291;37.520;15.106;2024-02-23T08:25:50;101143.28;;;15.71;72.00
54556;BME280;57291;37.520;15.106;2024-02-23T08:28:17;101141.53;;;15.75;71.89
54556;BME280;57291;37.520;15.106;2024-02-23T08:30:45;101146.06;;;15.80;71.26
54556;BME280;57291;37.520;15.106;2024-02-23T08:33:13;101146.38;;;15.69;72.00
54556;BME280;57291;37.520;15.106;2024-02-23T08:35:40;101133.94;;;15.72;72.80
54556;BME280;57291;37.520;15.106;2024-02-23T08:38:08;101135.41;;;15.78;72.91
54556;BME280;57291;37.520;15.106;2024-02-23T08:40:36;101132.81;;;15.82;73.07
54556;BME280;57291;37.520;15.106;2024-02-23T08:43:03;101136.38;;;15.74;73.25
54556;BME280;57291;37.520;15.106;2024-02-23T08:48:33;101128.31;;;15.94;72.65
54556;BME280;57291;37.520;15.106;2024-02-23T08:51:01;101115.59;;;16.16;72.20
54556;BME280;57291;37.520;15.106;2024-02-23T08:53:28;101121.72;;;16.30;70.39
54556;BME280;57291;37.520;15.106;2024-02-23T08:55:55;101108.66;;;16.36;69.81
54556;BME280;57291;37.520;15.106;2024-02-23T08:58:22;101097.47;;;16.50;69.06
54556;BME280;57291;37.520;15.106;2024-02-23T09:00:50;101099.44;;;16.40;68.88
54556;BME280;57291;37.520;15.106;2024-02-23T09:03:17;101110.69;;;16.56;68.88
54556;BME280;57291;37.520;15.106;2024-02-23T09:05:45;101112.47;;;16.78;68.02
54556;BME280;57291;37.520;15.106;2024-02-23T09:08:14;101093.19;;;16.87;66.99
54556;BME280;57291;37.520;15.106;2024-02-23T09:10:42;101097.59;;;16.79;67.68
54556;BME280;57291;37.520;15.106;2024-02-23T09:13:10;101110.44;;;16.96;66.80
54556;BME280;57291;37.520;15.106;2024-02-23T09:15:38;101097.75;;;16.83;67.11
54556;BME280;57291;37.520;15.106;2024-02-23T09:18:05;101093.53;;;16.85;67.37
54556;BME280;57291;37.520;15.106;2024-02-23T09:20:33;101092.00;;;17.05;66.18
54556;BME280;57291;37.520;15.106;2024-02-23T09:23:00;101085.94;;;17.21;65.18
54556;BME280;57291;37.520;15.106;2024-02-23T09:25:28;101089.94;;;17.32;64.48
54556;BME280;57291;37.520;15.106;2024-02-23T09:27:57;101077.66;;;17.29;62.34
54556;BME280;57291;37.520;15.106;2024-02-23T09:30:24;101079.88;;;17.36;60.96
54556;BME280;57291;37.520;15.106;2024-02-23T09:32:52;101080.81;;;17.40;62.50
54556;BME280;57291;37.520;15.106;2024-02-23T09:35:20;101069.41;;;17.29;63.49
54556;BME280;57291;37.520;15.106;2024-02-23T09:37:47;101072.66;;;17.52;61.69
54556;BME280;57291;37.520;15.106;2024-02-23T09:40:15;101060.75;;;17.48;60.22
54556;BME280;57291;37.520;15.106;2024-02-23T09:42:43;101069.78;;;17.70;59.95
54556;BME280;57291;37.520;15.106;2024-02-23T09:45:17;101066.72;;;17.71;58.69
54556;BME280;57291;37.520;15.106;2024-02-23T09:47:44;101073.28;;;17.58;60.24
54556;BME280;57291;37.520;15.106;2024-02-23T09:50:15;101062.69;;;17.48;60.42
54556;BME280;57291;37.520;15.106;2024-02-23T09:52:45;101065.69;;;17.76;59.72
54556;BME280;57291;37.520;15.106;2024-02-23T09:55:14;101065.06;;;17.79;59.36
54556;BME280;57291;37.520;15.106;2024-02-23T09:57:42;101065.88;;;18.00;59.30
54556;BME280;57291;37.520;15.106;2024-02-23T10:00:09;101044.66;;;18.01;58.64
54556;BME280;57291;37.520;15.106;2024-02-23T10:02:39;101064.66;;;17.89;58.88
54556;BME280;57291;37.520;15.106;2024-02-23T10:05:08;101058.88;;;18.03;58.98
54556;BME280;57291;37.520;15.106;2024-02-23T10:07:37;101062.34;;;18.12;58.62
54556;BME280;57291;37.520;15.106;2024-02-23T10:10:08;101063.53;;;18.57;57.76
54556;BME280;57291;37.520;15.106;2024-02-23T10:12:36;101065.88;;;18.91;56.88
54556;BME280;57291;37.520;15.106;2024-02-23T10:15:04;101046.03;;;19.10;55.64
54556;BME280;57291;37.520;15.106;2024-02-23T10:17:32;101045.81;;;19.15;55.63
54556;BME280;57291;37.520;15.106;2024-02-23T10:20:03;101042.69;;;19.29;55.53
54556;BME280;57291;37.520;15.106;2024-02-23T10:22:33;101033.28;;;19.18;54.94
54556;BME280;57291;37.520;15.106;2024-02-23T10:25:02;101035.59;;;19.16;54.13
54556;BME280;57291;37.520;15.106;2024-02-23T10:27:30;101029.50;;;18.73;54.81
54556;BME280;57291;37.520;15.106;2024-02-23T10:29:57;101033.53;;;18.31;55.93
54556;BME280;57291;37.520;15.106;2024-02-23T10:32:29;101032.13;;;18.24;56.18
54556;BME280;57291;37.520;15.106;2024-02-23T10:35:00;101025.97;;;18.73;55.83
54556;BME280;57291;37.520;15.106;2024-02-23T10:37:31;101025.59;;;19.11;54.90
54556;BME280;57291;37.520;15.106;2024-02-23T10:40:00;101027.53;;;19.35;53.55
54556;BME280;57291;37.520;15.106;2024-02-23T10:42:33;101027.38;;;19.68;52.92
54556;BME280;57291;37.520;15.106;2024-02-23T10:45:01;101004.34;;;19.24;53.06
54556;BME280;57291;37.520;15.106;2024-02-23T10:47:31;101013.56;;;18.79;53.50
54556;BME280;57291;37.520;15.106;2024-02-23T10:50:02;101012.25;;;18.64;53.20
54556;BME280;57291;37.520;15.106;2024-02-23T10:52:30;101021.38;;;18.89;53.32
54556;BME280;57291;37.520;15.106;2024-02-23T10:55:00;101014.94;;;19.22;52.35
54556;BME280;57291;37.520;15.106;2024-02-23T10:57:31;101013.72;;;19.48;51.65
54556;BME280;57291;37.520;15.106;2024-02-23T10:59:59;100999.03;;;19.43;51.86
54556;BME280;57291;37.520;15.106;2024-02-23T11:02:28;101000.84;;;19.52;52.42
54556;BME280;57291;37.520;15.106;2024-02-23T11:04:59;100996.47;;;19.51;52.10
54556;BME280;57291;37.520;15.106;2024-02-23T11:07:29;100994.66;;;19.55;51.63
54556;BME280;57291;37.520;15.106;2024-02-23T11:10:00;100996.16;;;19.40;50.56
54556;BME280;57291;37.520;15.106;2024-02-23T11:12:31;100988.97;;;19.11;51.51
54556;BME280;57291;37.520;15.106;2024-02-23T11:14:59;100985.06;;;19.24;51.09
54556;BME280;57291;37.520;15.106;2024-02-23T11:17:31;100984.94;;;19.20;51.04
54556;BME280;57291;37.520;15.106;2024-02-23T11:20:03;100965.63;;;18.92;51.16
54556;BME280;57291;37.520;15.106;2024-02-23T11:22:33;100969.59;;;19.07;50.40
54556;BME280;57291;37.520;15.106;2024-02-23T11:25:06;100964.28;;;19.14;50.13
54556;BME280;57291;37.520;15.106;2024-02-23T11:27:38;100957.88;;;19.10;50.37
54556;BME280;57291;37.520;15.106;2024-02-23T11:30:10;100954.66;;;19.20;50.21
54556;BME280;57291;37.520;15.106;2024-02-23T11:32:40;100958.34;;;19.12;49.68
54556;BME280;57291;37.520;15.106;2024-02-23T11:35:10;100948.34;;;19.08;47.75
54556;BME280;57291;37.520;15.106;2024-02-23T11:37:55;100947.13;;;19.05;45.91
54556;BME280;57291;37.520;15.106;2024-02-23T11:40:32;100942.16;;;18.98;45.71
54556;BME280;57291;37.520;15.106;2024-02-23T11:42:59;100942.72;;;19.16;45.25
54556;BME280;57291;37.520;15.106;2024-02-23T11:45:31;100939.47;;;19.27;44.63
54556;BME280;57291;37.520;15.106;2024-02-23T11:47:58;100931.94;;;19.11;44.59
54556;BME280;57291;37.520;15.106;2024-02-23T11:50:27;100946.75;;;19.07;44.62
54556;BME280;57291;37.520;15.106;2024-02-23T11:52:54;100942.63;;;19.01;45.51
54556;BME280;57291;37.520;15.106;2024-02-23T11:55:22;100937.59;;;18.90;44.46
54556;BME280;57291;37.520;15.106;2024-02-23T11:57:51;100925.47;;;18.79;43.11
54556;BME280;57291;37.520;15.106;2024-02-23T12:00:31;100944.03;;;18.70;42.41
54556;BME280;57291;37.520;15.106;2024-02-23T12:02:59;100928.41;;;18.98;42.56
54556;BME280;57291;37.520;15.106;2024-02-23T12:05:27;100934.78;;;19.55;42.29
54556;BME280;57291;37.520;15.106;2024-02-23T12:07:54;100943.19;;;20.03;41.30
54556;BME280;57291;37.520;15.106;2024-02-23T12:10:23;100920.41;;;20.06;41.69
54556;BME280;57291;37.520;15.106;2024-02-23T12:12:50;100924.25;;;20.01;41.71
54556;BME280;57291;37.520;15.106;2024-02-23T12:15:18;100931.44;;;20.06;40.95
54556;BME280;57291;37.520;15.106;2024-02-23T12:17:49;100922.00;;;19.91;40.75
54556;BME280;57291;37.520;15.106;2024-02-23T12:20:17;100907.16;;;19.96;41.24
54556;BME280;57291;37.520;15.106;2024-02-23T12:22:47;100908.06;;;20.15;41.72
54556;BME280;57291;37.520;15.106;2024-02-23T12:25:14;100903.41;;;20.35;40.53
54556;BME280;57291;37.520;15.106;2024-02-23T12:27:43;100902.25;;;20.36;40.62
54556;BME280;57291;37.520;15.106;2024-02-23T12:30:14;100893.09;;;20.32;40.01
54556;BME280;57291;37.520;15.106;2024-02-23T12:32:42;100908.31;;;19.95;40.93
54556;BME280;57291;37.520;15.106;2024-02-23T12:35:11;100909.72;;;19.88;41.04
54556;BME280;57291;37.520;15.106;2024-02-23T12:37:40;100904.53;;;19.71;41.33
54556;BME280;57291;37.520;15.106;2024-02-23T12:40:11;100895.78;;;19.13;42.45
54556;BME280;57291;37.520;15.106;2024-02-23T12:42:40;100884.78;;;19.13;42.76
54556;BME280;57291;37.520;15.106;2024-02-23T12:45:08;100882.69;;;19.22;42.64
54556;BME280;57291;37.520;15.106;2024-02-23T12:47:35;100889.41;;;19.25;42.74
54556;BME280;57291;37.520;15.106;2024-02-23T12:50:04;100881.75;;;19.18;42.54